Time;durP1;ratioP1;P1;durP2;ratioP2;P2;SDS_P1;SDS_P2;PMS_P1;PMS_P2;Temp;Humidity;BMP_temperature;BMP_pressure;BME280_temperature;BME280_humidity;BME280_pressure;Samples;Min_cycle;Max_cycle;Signal;HPM_P1;HPM_P2
2023/06/20 00:00:41;;;;;;;11.30;7.70;;;;;;;24.88;46.79;101334.72;5050664;28;20318;-47
2023/06/20 00:03:06;;;;;;;11.40;7.78;;;;;;;24.96;46.23;101329.09;5049749;28;20036;-46
2023/06/20 00:05:32;;;;;;;10.27;7.45;;;;;;;24.80;46.32;101331.47;5048990;28;20040;-50
2023/06/20 00:07:57;;;;;;;11.65;7.97;;;;;;;24.85;46.29;101331.28;5049466;28;20453;-49
2023/06/20 00:10:23;;;;;;;12.75;8.00;;;;;;;24.81;46.66;101329.69;5048801;28;20062;-47
2023/06/20 00:12:48;;;;;;;10.82;7.20;;;;;;;24.94;46.61;101325.66;5049673;28;20033;-47
2023/06/20 00:15:13;;;;;;;13.00;7.60;;;;;;;24.91;46.25;101331.09;5049135;28;20040;-47
2023/06/20 00:17:38;;;;;;;12.65;7.80;;;;;;;24.91;46.57;101325.75;5049005;28;20064;-50
2023/06/20 00:20:06;;;;;;;12.35;8.18;;;;;;;24.83;46.56;101331.34;5049394;28;20040;-45
2023/06/20 00:22:35;;;;;;;12.93;8.00;;;;;;;24.70;46.83;101324.78;5049124;28;20047;-45
2023/06/20 00:25:04;;;;;;;10.73;7.53;;;;;;;24.91;46.64;101325.75;5049716;28;20037;-48
2023/06/20 00:27:29;;;;;;;12.55;8.27;;;;;;;24.42;47.24;101324.91;5048784;28;20040;-47
2023/06/20 00:29:55;;;;;;;11.15;7.47;;;;;;;24.73;46.58;101337.09;5049554;28;20032;-45
2023/06/20 00:32:20;;;;;;;11.95;8.20;;;;;;;24.60;47.32;101334.03;5049652;28;20041;-44
2023/06/20 00:34:46;;;;;;;10.32;7.28;;;;;;;24.84;46.56;101326.88;5049619;28;20033;-47
2023/06/20 00:37:11;;;;;;;11.25;7.30;;;;;;;24.82;46.71;101323.44;5048880;28;20033;-46
2023/06/20 00:39:36;;;;;;;11.80;7.70;;;;;;;24.90;46.42;101318.69;5049750;28;20723;-48
2023/06/20 00:42:03;;;;;;;10.13;7.13;;;;;;;24.88;46.91;101325.88;5049721;28;20032;-46
2023/06/20 00:44:29;;;;;;;11.82;7.93;;;;;;;24.60;47.29;101321.56;5049483;28;20029;-47
2023/06/20 00:46:54;;;;;;;11.45;7.75;;;;;;;24.77;47.43;101317.38;5049787;28;20090;-46
2023/06/20 00:49:20;;;;;;;9.50;6.97;;;;;;;24.86;46.85;101309.03;5049948;28;20076;-47
2023/06/20 00:51:45;;;;;;;11.35;7.60;;;;;;;24.74;47.33;101315.72;5050795;28;20029;-45
2023/06/20 00:54:11;;;;;;;11.93;7.40;;;;;;;24.86;47.14;101317.03;5050544;28;20061;-47
2023/06/20 00:56:37;;;;;;;9.95;7.47;;;;;;;24.77;47.51;101317.38;5050492;28;20036;-46
2023/06/20 00:59:03;;;;;;;11.38;8.13;;;;;;;24.34;48.35;101313.66;5054400;28;20033;-48
2023/06/20 01:01:31;;;;;;;11.52;7.55;;;;;;;24.56;48.65;101306.63;5053888;28;20038;-45
2023/06/20 01:03:58;;;;;;;12.73;7.95;;;;;;;24.41;48.51;101308.97;5054239;28;20082;-48
2023/06/20 01:06:43;;;;;;;10.63;7.45;;;;;;;24.62;48.33;101301.06;5052432;28;20049;-47
2023/06/20 01:09:44;;;;;;;12.27;7.55;;;;;;;24.69;48.35;101300.81;5052618;28;20033;-50
2023/06/20 01:12:20;;;;;;;11.18;7.80;;;;;;;24.33;48.99;101295.94;5052773;28;20087;-49
2023/06/20 01:14:57;;;;;;;12.30;8.10;;;;;;;24.37;49.59;101299.34;5052748;28;20079;-48
2023/06/20 01:17:26;;;;;;;12.85;7.65;;;;;;;24.28;49.68;101297.88;5052042;28;20040;-44
2023/06/20 01:20:08;;;;;;;13.05;8.00;;;;;;;24.33;49.85;101290.63;5052360;28;20132;-46
2023/06/20 01:22:41;;;;;;;13.35;7.70;;;;;;;24.38;49.85;101285.13;5052246;28;20039;-46
2023/06/20 01:25:11;;;;;;;9.48;7.30;;;;;;;24.48;49.68;101287.38;5052744;28;20041;-47
2023/06/20 01:27:43;;;;;;;12.75;7.90;;;;;;;24.23;50.18;101289.19;5052207;28;20117;-47
2023/06/20 01:30:31;;;;;;;10.52;7.85;;;;;;;24.39;50.08;101284.19;5052383;28;20098;-48
2023/06/20 01:33:02;;;;;;;11.18;7.63;;;;;;;24.22;50.04;101277.66;5052353;28;20039;-48
2023/06/20 01:35:31;;;;;;;12.52;7.75;;;;;;;23.89;50.85;101268.22;5051552;28;20395;-50
2023/06/20 01:38:00;;;;;;;13.25;7.63;;;;;;;24.34;49.73;101273.69;5052709;28;20031;-46
2023/06/20 01:40:26;;;;;;;13.15;7.95;;;;;;;24.39;49.28;101271.75;5052390;28;20037;-46
2023/06/20 01:42:58;;;;;;;12.23;7.55;;;;;;;24.31;49.73;101272.94;5052641;28;20029;-43
2023/06/20 01:45:26;;;;;;;10.90;7.32;;;;;;;24.38;49.44;101272.66;5051708;28;20033;-48
2023/06/20 01:47:55;;;;;;;11.88;8.02;;;;;;;24.38;49.17;101269.13;5052120;28;20784;-47
2023/06/20 01:50:21;;;;;;;13.48;8.05;;;;;;;24.35;49.51;101271.88;5051666;28;20037;-47
2023/06/20 01:52:48;;;;;;;12.32;7.88;;;;;;;24.48;48.86;101275.84;5052577;28;20128;-47
2023/06/20 01:55:15;;;;;;;10.43;7.07;;;;;;;24.37;49.16;101278.91;5053097;28;20037;-48
2023/06/20 01:57:42;;;;;;;11.18;6.80;;;;;;;24.47;49.21;101282.09;5054169;28;20543;-46
2023/06/20 02:00:11;;;;;;;12.73;7.03;;;;;;;24.52;48.78;101273.00;5053638;28;20037;-46
2023/06/20 02:02:37;;;;;;;10.00;7.40;;;;;;;24.52;49.07;101269.44;5051909;28;20033;-48
2023/06/20 02:05:05;;;;;;;10.07;7.35;;;;;;;24.54;48.94;101270.28;5051922;28;20069;-45
2023/06/20 02:07:31;;;;;;;10.20;7.43;;;;;;;24.54;48.67;101264.94;5049821;28;20049;-44
2023/06/20 02:09:57;;;;;;;9.10;6.75;;;;;;;24.45;49.01;101267.97;5051488;28;20035;-44
2023/06/20 02:12:24;;;;;;;10.10;7.30;;;;;;;24.48;49.07;101262.50;5051197;28;20032;-44
2023/06/20 02:14:52;;;;;;;10.75;7.60;;;;;;;24.30;49.09;101260.53;5051704;28;20057;-47
2023/06/20 02:17:18;;;;;;;13.43;7.43;;;;;;;24.30;48.61;101261.41;5050779;28;20043;-45
2023/06/20 02:19:44;;;;;;;11.98;7.13;;;;;;;24.47;48.32;101271.44;5051533;28;20068;-46
2023/06/20 02:22:12;;;;;;;11.95;7.10;;;;;;;24.46;48.85;101267.00;5051997;28;20037;-45
2023/06/20 02:24:40;;;;;;;9.30;7.20;;;;;;;24.44;48.56;101267.09;5051588;28;20076;-45
2023/06/20 02:27:09;;;;;;;12.20;7.00;;;;;;;24.37;48.50;101270.03;5051193;28;20530;-47
2023/06/20 02:29:38;;;;;;;9.98;7.20;;;;;;;24.45;48.39;101268.84;5051351;28;20063;-45
2023/06/20 02:32:04;;;;;;;11.27;7.57;;;;;;;24.47;48.63;101268.75;5051477;28;20029;-48
2023/06/20 02:34:31;;;;;;;15.02;7.82;;;;;;;24.36;48.95;101260.31;5049195;28;20036;-48
2023/06/20 02:36:58;;;;;;;11.25;7.30;;;;;;;24.41;48.69;101263.66;5050758;28;20491;-45
2023/06/20 02:39:24;;;;;;;10.13;7.13;;;;;;;24.30;49.26;101252.53;5050451;28;20069;-51
2023/06/20 02:41:49;;;;;;;10.52;7.72;;;;;;;24.18;49.47;101246.75;5050843;28;20071;-50
2023/06/20 02:44:14;;;;;;;11.65;7.47;;;;;;;24.21;49.48;101246.63;5050524;28;20045;-45
2023/06/20 02:46:58;;;;;;;10.43;7.43;;;;;;;24.30;49.10;101242.75;5050384;28;20495;-49
2023/06/20 02:49:39;;;;;;;10.25;7.43;;;;;;;24.18;49.40;101243.19;5050207;28;20041;-45
2023/06/20 02:52:35;;;;;;;9.18;7.05;;;;;;;24.37;48.79;101230.06;5051018;28;20037;-49
2023/06/20 02:55:12;;;;;;;10.80;7.30;;;;;;;24.44;48.64;101234.25;5050620;28;20111;-47
2023/06/20 02:57:42;;;;;;;10.68;7.68;;;;;;;24.28;49.11;101225.94;5050203;28;20041;-46
2023/06/20 03:00:11;;;;;;;9.55;7.05;;;;;;;24.36;48.91;101231.00;5050750;28;20040;-47
2023/06/20 03:03:05;;;;;;;11.65;7.80;;;;;;;24.07;49.07;101230.25;5050035;28;20029;-51
2023/06/20 03:05:35;;;;;;;11.30;7.18;;;;;;;24.34;49.14;101230.16;5043777;28;20045;-47
2023/06/20 03:08:02;;;;;;;10.32;7.68;;;;;;;24.17;48.84;101234.31;5050537;28;20033;-51
2023/06/20 03:10:28;;;;;;;16.73;7.82;;;;;;;23.99;49.21;101235.00;5050356;28;20060;-48
2023/06/20 03:12:53;;;;;;;12.05;8.02;;;;;;;24.21;48.66;101237.78;5050276;28;20060;-48
2023/06/20 03:15:18;;;;;;;10.90;7.68;;;;;;;24.27;48.83;101225.06;5049399;28;20492;-49
2023/06/20 03:17:44;;;;;;;12.27;7.65;;;;;;;24.32;48.25;101234.72;5050309;28;20036;-43
2023/06/20 03:20:09;;;;;;;10.13;6.93;;;;;;;24.25;48.61;101234.06;5049569;28;20086;-51
2023/06/20 03:22:35;;;;;;;9.50;7.10;;;;;;;24.19;48.50;101231.63;5050147;28;20058;-45
2023/06/20 03:25:01;;;;;;;11.85;7.78;;;;;;;24.19;48.93;101232.50;5050141;28;20033;-47
2023/06/20 03:27:26;;;;;;;11.20;7.30;;;;;;;24.34;47.76;101231.03;5049434;28;20067;-45
2023/06/20 03:29:51;;;;;;;11.70;7.53;;;;;;;24.06;48.44;101232.97;5049777;28;20052;-49
2023/06/20 03:32:17;;;;;;;13.70;7.45;;;;;;;24.40;47.91;101229.94;5049694;28;20401;-43
2023/06/20 03:34:42;;;;;;;11.15;7.45;;;;;;;24.37;47.87;101232.72;5050023;28;20139;-47
2023/06/20 03:37:07;;;;;;;11.63;7.18;;;;;;;24.43;47.39;101227.16;5049474;28;20037;-48
2023/06/20 03:39:33;;;;;;;9.05;6.88;;;;;;;24.57;47.21;101228.38;5049376;28;20414;-47
2023/06/20 03:41:58;;;;;;;10.90;7.22;;;;;;;24.27;47.52;101232.22;5049888;28;20064;-44
2023/06/20 03:44:23;;;;;;;10.60;7.28;;;;;;;24.52;46.87;101230.34;5049234;28;20350;-47
2023/06/20 03:46:48;;;;;;;10.13;7.20;;;;;;;24.58;47.38;101239.88;5049420;28;20364;-48
2023/06/20 03:49:14;;;;;;;9.63;7.10;;;;;;;24.58;46.94;101247.88;5047853;28;20033;-46
2023/06/20 03:51:39;;;;;;;12.13;7.50;;;;;;;24.44;47.29;101242.25;5049788;28;20120;-45
2023/06/20 03:54:05;;;;;;;9.02;6.80;;;;;;;24.61;47.21;101239.78;5049740;28;20028;-47
2023/06/20 03:56:30;;;;;;;10.32;7.25;;;;;;;24.56;47.05;101244.44;5048912;28;21438;-45
2023/06/20 03:58:55;;;;;;;10.45;6.93;;;;;;;24.62;47.07;101247.72;5051953;28;20032;-47
2023/06/20 04:01:24;;;;;;;11.18;7.57;;;;;;;24.56;46.89;101247.09;5051098;28;20040;-48
2023/06/20 04:03:49;;;;;;;10.98;7.28;;;;;;;24.63;46.80;101241.47;5050208;28;20119;-50
2023/06/20 04:06:15;;;;;;;10.57;6.88;;;;;;;24.70;46.64;101239.44;5048585;28;20528;-45
2023/06/20 04:08:42;;;;;;;11.02;6.90;;;;;;;24.63;46.98;101240.59;5049582;28;20065;-47
2023/06/20 04:11:07;;;;;;;8.88;6.90;;;;;;;24.64;47.05;101245.03;5049637;28;20033;-46
2023/06/20 04:13:33;;;;;;;11.23;7.18;;;;;;;24.58;46.99;101242.56;5049005;28;20029;-45
2023/06/20 04:15:58;;;;;;;9.20;6.95;;;;;;;24.66;46.87;101245.81;5049015;28;20569;-49
2023/06/20 04:18:23;;;;;;;10.23;7.30;;;;;;;24.63;46.95;101238.81;5048743;28;20472;-44
2023/06/20 04:20:49;;;;;;;10.02;7.07;;;;;;;24.67;46.82;101239.56;5049108;28;20411;-49
2023/06/20 04:23:14;;;;;;;13.02;7.95;;;;;;;24.61;47.12;101235.31;5049264;28;20565;-50
2023/06/20 04:25:39;;;;;;;11.18;7.22;;;;;;;24.70;46.69;101239.44;5048752;28;20041;-48
2023/06/20 04:28:05;;;;;;;10.73;7.72;;;;;;;24.66;46.74;101245.81;5048933;28;20029;-47
2023/06/20 04:30:31;;;;;;;11.70;7.47;;;;;;;24.72;47.14;101242.91;5048584;28;20063;-47
2023/06/20 04:32:56;;;;;;;10.95;7.68;;;;;;;24.79;46.96;101238.19;5051093;28;20499;-53
2023/06/20 04:35:22;;;;;;;14.25;8.13;;;;;;;24.65;46.73;101244.94;5052228;28;20170;-46
2023/06/20 04:37:51;;;;;;;12.57;7.80;;;;;;;24.78;47.13;101239.13;5053157;28;20033;-50
2023/06/20 04:40:18;;;;;;;10.25;7.35;;;;;;;24.81;46.74;101237.22;5051209;28;20044;-45
2023/06/20 04:42:45;;;;;;;10.25;7.30;;;;;;;24.87;46.65;101226.31;5053488;28;20040;-51
2023/06/20 04:45:11;;;;;;;11.10;7.28;;;;;;;24.90;47.15;101220.00;5053204;28;20037;-50
2023/06/20 04:47:36;;;;;;;11.25;7.65;;;;;;;25.00;46.96;101214.25;5052514;28;20033;-46
2023/06/20 04:50:03;;;;;;;11.77;8.13;;;;;;;24.98;47.83;101217.91;5053235;28;20029;-50
2023/06/20 04:52:30;;;;;;;13.15;8.57;;;;;;;24.97;48.47;101217.03;5052400;28;20418;-49
2023/06/20 04:55:01;;;;;;;11.73;8.10;;;;;;;25.10;48.41;101214.72;5053391;28;20549;-47
2023/06/20 04:57:27;;;;;;;12.57;8.10;;;;;;;25.13;48.21;101211.91;5052547;28;20056;-46
2023/06/20 04:59:52;;;;;;;10.95;7.85;;;;;;;25.16;48.42;101217.13;5053425;28;20037;-46
2023/06/20 05:02:18;;;;;;;10.85;8.40;;;;;;;25.27;47.99;101212.22;5052736;28;20037;-46
2023/06/20 05:04:43;;;;;;;10.90;8.07;;;;;;;25.45;48.02;101200.75;5053010;28;20124;-45
2023/06/20 05:07:08;;;;;;;10.77;7.90;;;;;;;25.51;47.54;101201.41;5052511;28;20033;-49
2023/06/20 05:09:34;;;;;;;13.35;8.55;;;;;;;25.50;47.59;101197.00;5052184;28;20411;-47
2023/06/20 05:11:59;;;;;;;13.85;8.13;;;;;;;25.62;47.29;101197.38;5052855;28;20071;-46
2023/06/20 05:14:24;;;;;;;11.80;7.78;;;;;;;25.75;46.99;101200.38;5052187;28;20085;-45
2023/06/20 05:16:49;;;;;;;11.48;8.35;;;;;;;25.69;47.42;101197.97;5052424;28;20022;-49
2023/06/20 05:19:15;;;;;;;11.02;7.88;;;;;;;25.76;46.70;101202.13;5050422;28;20507;-47
2023/06/20 05:21:41;;;;;;;13.02;8.98;;;;;;;25.84;46.68;101200.00;5053110;28;20041;-42
2023/06/20 05:24:07;;;;;;;13.18;9.73;;;;;;;26.26;45.57;101199.88;5052675;28;20021;-46
2023/06/20 05:26:32;;;;;;;12.45;8.57;;;;;;;26.04;45.49;101205.31;5050518;28;20036;-45
2023/06/20 05:28:57;;;;;;;12.90;8.50;;;;;;;26.27;44.86;101204.28;5052596;28;20480;-49
2023/06/20 05:31:24;;;;;;;13.00;9.48;;;;;;;25.88;45.00;101203.38;5052713;28;20063;-47
2023/06/20 05:33:50;;;;;;;12.93;8.35;;;;;;;26.07;45.12;101202.47;5053514;28;20033;-49
2023/06/20 05:36:15;;;;;;;16.65;8.80;;;;;;;26.21;45.41;101192.03;5050729;28;20117;-45
2023/06/20 05:38:40;;;;;;;11.13;8.50;;;;;;;26.16;45.29;101195.88;5053327;28;20032;-45
2023/06/20 05:41:06;;;;;;;12.00;8.10;;;;;;;26.39;45.17;101194.81;5054080;28;20483;-48
2023/06/20 05:43:33;;;;;;;11.10;8.52;;;;;;;26.37;45.26;101189.53;5051807;28;20495;-47
2023/06/20 05:45:58;;;;;;;13.45;8.88;;;;;;;26.27;45.10;101188.25;5052371;28;20041;-49
2023/06/20 05:48:25;;;;;;;13.65;8.93;;;;;;;26.31;45.10;101187.16;5051527;28;20086;-48
2023/06/20 05:50:51;;;;;;;11.65;8.50;;;;;;;26.42;45.92;101182.16;5052094;28;20518;-46
2023/06/20 05:53:17;;;;;;;11.48;8.65;;;;;;;26.34;45.07;101178.13;5051508;28;20052;-49
2023/06/20 05:55:43;;;;;;;14.15;9.15;;;;;;;26.32;44.59;101180.00;5051713;28;20021;-45
2023/06/20 05:58:08;;;;;;;10.68;7.97;;;;;;;26.17;44.77;101181.53;5051829;28;20411;-48
2023/06/20 06:00:34;;;;;;;13.60;8.60;;;;;;;26.37;44.33;101172.63;5051083;28;20037;-45
2023/06/20 06:02:59;;;;;;;16.08;9.20;;;;;;;26.31;44.04;101180.94;5054139;28;20029;-47
2023/06/20 06:05:24;;;;;;;16.05;9.02;;;;;;;26.30;43.97;101184.53;5052496;28;20052;-46
2023/06/20 06:07:50;;;;;;;15.73;8.68;;;;;;;26.51;44.04;101191.56;5051675;28;20120;-48
2023/06/20 06:10:16;;;;;;;13.15;8.90;;;;;;;27.13;42.22;101193.88;5050952;28;20179;-51
2023/06/20 06:12:42;;;;;;;11.10;8.45;;;;;;;27.22;42.50;101189.84;5051758;28;20029;-47
2023/06/20 06:15:08;;;;;;;12.32;8.90;;;;;;;27.68;41.43;101183.91;5051493;28;20044;-48
2023/06/20 06:17:33;;;;;;;12.13;8.60;;;;;;;27.81;41.24;101197.53;5049850;28;20040;-45
2023/06/20 06:19:59;;;;;;;14.02;9.35;;;;;;;27.64;41.21;101187.66;5049881;28;20483;-46
2023/06/20 06:22:24;;;;;;;13.88;9.25;;;;;;;27.89;40.85;101187.25;5051230;28;20029;-50
2023/06/20 06:24:51;;;;;;;11.65;8.25;;;;;;;28.25;40.58;101187.97;5051139;28;20047;-51
2023/06/20 06:27:17;;;;;;;19.88;9.55;;;;;;;28.21;40.54;101181.03;5050624;28;20445;-53
2023/06/20 06:29:42;;;;;;;13.85;9.32;;;;;;;28.18;40.70;101177.66;5051375;28;20479;-49
2023/06/20 06:32:08;;;;;;;15.10;9.70;;;;;;;28.14;41.12;101181.47;5051553;28;20029;-46
2023/06/20 06:34:34;;;;;;;15.52;10.05;;;;;;;27.80;40.69;101169.88;5050747;28;20032;-45
2023/06/20 06:37:00;;;;;;;15.63;10.43;;;;;;;27.68;40.60;101158.94;5051028;28;20029;-45
2023/06/20 06:39:26;;;;;;;17.77;9.70;;;;;;;27.77;40.70;101166.47;5050942;28;20461;-46
2023/06/20 06:41:51;;;;;;;15.15;10.30;;;;;;;27.85;40.67;101166.94;5052081;28;20545;-44
2023/06/20 06:44:18;;;;;;;16.27;10.32;;;;;;;27.78;40.79;101169.06;5051407;28;20037;-50
2023/06/20 06:46:44;;;;;;;12.90;9.55;;;;;;;28.07;40.77;101164.81;5051309;28;20052;-47
2023/06/20 06:49:09;;;;;;;16.67;10.32;;;;;;;28.41;39.55;101157.63;5052180;28;20487;-47
2023/06/20 06:51:36;;;;;;;14.57;9.90;;;;;;;28.87;39.44;101155.88;5049939;28;20029;-46
2023/06/20 06:54:02;;;;;;;16.73;10.45;;;;;;;29.58;37.81;101151.59;5051472;28;20048;-47
2023/06/20 06:56:27;;;;;;;17.45;10.35;;;;;;;30.36;36.08;101152.09;5049766;28;20040;-45
2023/06/20 06:58:56;;;;;;;16.65;9.98;;;;;;;30.51;35.27;101146.59;5049606;28;20400;-44
2023/06/20 07:01:21;;;;;;;14.70;10.13;;;;;;;30.95;34.86;101132.91;5050407;28;20037;-48
2023/06/20 07:03:47;;;;;;;14.63;9.98;;;;;;;31.75;33.47;101131.00;5050818;28;20089;-46
2023/06/20 07:06:12;;;;;;;13.90;10.18;;;;;;;32.25;32.65;101113.03;5049500;28;20049;-45
2023/06/20 07:08:37;;;;;;;14.98;10.45;;;;;;;32.39;32.23;101115.56;5050417;28;20060;-44
2023/06/20 07:11:03;;;;;;;14.70;10.52;;;;;;;32.11;32.77;101109.47;5050165;28;20537;-45
2023/06/20 07:13:28;;;;;;;16.35;10.95;;;;;;;31.37;34.09;101117.47;5048691;28;20037;-48
2023/06/20 07:15:53;;;;;;;15.25;10.95;;;;;;;30.16;36.20;101115.72;5049967;28;20120;-48
2023/06/20 07:18:18;;;;;;;17.63;11.68;;;;;;;30.10;36.05;101118.81;5048366;28;20041;-49
2023/06/20 07:20:44;;;;;;;14.00;10.15;;;;;;;30.00;37.61;101117.69;5049952;28;20130;-45
2023/06/20 07:23:09;;;;;;;20.88;11.52;;;;;;;30.22;36.58;101123.41;5050597;28;20044;-48
2023/06/20 07:25:34;;;;;;;15.95;11.65;;;;;;;31.04;34.97;101129.59;5047815;28;20045;-45
2023/06/20 07:28:00;;;;;;;15.05;10.73;;;;;;;32.23;33.42;101134.72;5050310;28;20120;-49
2023/06/20 07:30:25;;;;;;;15.32;9.85;;;;;;;33.34;31.42;101135.31;5049508;28;20123;-50
2023/06/20 07:32:50;;;;;;;18.20;10.38;;;;;;;34.12;29.88;101135.41;5050144;28;20487;-46
2023/06/20 07:35:16;;;;;;;13.35;9.50;;;;;;;34.45;30.01;101131.84;5049759;28;20067;-48
2023/06/20 07:37:41;;;;;;;13.60;9.82;;;;;;;35.09;28.83;101136.41;5049806;28;20111;-53
2023/06/20 07:40:07;;;;;;;11.75;9.40;;;;;;;35.37;28.47;101133.09;5050419;28;20024;-46
2023/06/20 07:42:33;;;;;;;13.48;10.88;;;;;;;35.34;27.74;101128.78;5049450;28;20480;-50
2023/06/20 07:44:58;;;;;;;15.13;9.85;;;;;;;34.89;29.55;101135.38;5049893;28;20033;-48
2023/06/20 07:47:24;;;;;;;15.65;10.10;;;;;;;35.99;26.67;101135.72;5048934;28;20051;-52
2023/06/20 07:49:49;;;;;;;11.02;9.10;;;;;;;36.58;26.64;101143.06;5049528;28;20056;-47
2023/06/20 07:52:14;;;;;;;13.20;9.30;;;;;;;36.31;26.84;101135.56;5049376;28;20044;-47
2023/06/20 07:54:40;;;;;;;11.73;9.00;;;;;;;36.26;27.28;101143.28;5049862;28;20112;-47
2023/06/20 07:57:05;;;;;;;11.35;9.43;;;;;;;36.30;27.12;101149.28;5049234;28;20033;-46
2023/06/20 07:59:30;;;;;;;14.73;8.85;;;;;;;36.29;27.36;101145.75;5049102;28;20175;-47
2023/06/20 08:01:56;;;;;;;11.85;9.18;;;;;;;36.86;26.33;101138.69;5053784;28;20057;-45
2023/06/20 08:04:21;;;;;;;12.23;9.15;;;;;;;36.93;25.96;101140.69;5053095;28;20033;-46
2023/06/20 08:06:47;;;;;;;12.85;9.65;;;;;;;36.34;28.09;101142.59;5050421;28;20094;-48
2023/06/20 08:09:12;;;;;;;13.18;9.43;;;;;;;35.50;28.99;101143.75;5049072;28;20029;-43
2023/06/20 08:11:38;;;;;;;14.48;9.32;;;;;;;35.43;28.96;101142.56;5049226;28;20407;-46
2023/06/20 08:14:03;;;;;;;13.60;8.73;;;;;;;37.06;26.66;101132.25;5049520;28;20570;-47
2023/06/20 08:16:28;;;;;;;11.43;10.10;;;;;;;37.28;26.10;101128.38;5048766;28;20037;-49
2023/06/20 08:18:54;;;;;;;14.73;9.60;;;;;;;36.84;27.20;101125.22;5049449;28;20029;-50
2023/06/20 08:21:19;;;;;;;12.57;9.50;;;;;;;36.77;26.92;101134.13;5049527;28;20051;-44
2023/06/20 08:23:45;;;;;;;14.10;9.82;;;;;;;36.45;27.75;101134.31;5049800;28;20025;-45
2023/06/20 08:26:11;;;;;;;13.23;8.50;;;;;;;36.84;26.81;101127.94;5049220;28;20040;-47
2023/06/20 08:28:36;;;;;;;11.50;8.18;;;;;;;37.16;26.63;101126.81;5049079;28;20029;-48
2023/06/20 08:31:02;;;;;;;11.00;8.27;;;;;;;36.71;27.15;101132.84;5047709;28;20033;-53
2023/06/20 08:33:28;;;;;;;12.55;7.63;;;;;;;37.36;25.72;101120.38;5048928;28;20033;-47
2023/06/20 08:35:54;;;;;;;10.38;8.25;;;;;;;36.18;27.29;101124.97;5048608;28;20025;-51
2023/06/20 08:38:19;;;;;;;10.27;7.88;;;;;;;36.24;27.82;101118.13;5049275;28;20563;-47
2023/06/20 08:40:45;;;;;;;11.45;7.93;;;;;;;36.27;28.57;101117.84;5049167;28;20125;-47
2023/06/20 08:43:17;;;;;;;13.25;8.63;;;;;;;35.22;29.40;101113.59;5049141;28;20120;-50
2023/06/20 08:45:43;;;;;;;11.00;8.38;;;;;;;34.78;30.18;101116.47;5048235;28;20037;-49
2023/06/20 08:48:09;;;;;;;13.25;9.35;;;;;;;34.00;31.75;101117.47;5049136;28;20457;-50
2023/06/20 08:50:37;;;;;;;13.65;8.88;;;;;;;33.83;32.06;101109.00;5048439;28;20029;-46
2023/06/20 08:53:05;;;;;;;13.88;8.65;;;;;;;32.89;33.26;101103.69;5049391;28;20029;-47
2023/06/20 08:55:32;;;;;;;10.48;8.07;;;;;;;33.38;32.73;101106.19;5048173;28;20033;-46
2023/06/20 08:57:57;;;;;;;10.07;7.30;;;;;;;33.43;32.77;101102.16;5049522;28;20469;-48
2023/06/20 09:00:23;;;;;;;9.15;6.57;;;;;;;33.27;33.33;101108.88;5048521;28;20091;-48
2023/06/20 09:02:50;;;;;;;7.40;6.20;;;;;;;33.25;33.21;101106.31;5047769;28;20037;-45
2023/06/20 09:05:15;;;;;;;8.13;6.40;;;;;;;33.27;33.62;101106.19;5048812;28;20041;-52
2023/06/20 09:07:41;;;;;;;10.20;6.20;;;;;;;33.19;32.98;101098.66;5048418;28;20029;-48
2023/06/20 09:10:08;;;;;;;11.35;7.05;;;;;;;32.96;33.57;101099.56;5048696;28;20040;-51
2023/06/20 09:12:52;;;;;;;6.70;5.75;;;;;;;32.85;33.25;101094.13;5048502;28;20411;-54
2023/06/20 09:15:19;;;;;;;9.55;6.07;;;;;;;32.76;33.89;101094.81;5048152;28;20030;-51
2023/06/20 09:17:49;;;;;;;14.23;6.45;;;;;;;32.53;34.49;101101.91;5048566;28;20029;-49
2023/06/20 09:20:14;;;;;;;6.60;5.63;;;;;;;32.90;34.23;101092.78;5050898;28;20094;-51
2023/06/20 09:22:41;;;;;;;6.13;5.00;;;;;;;32.87;34.20;101093.03;5051666;28;20502;-49
2023/06/20 09:25:08;;;;;;;9.40;6.90;;;;;;;32.58;33.70;101097.88;5052444;28;20033;-51
2023/06/20 09:27:36;;;;;;;8.27;6.72;;;;;;;32.04;35.07;101097.41;5050629;28;20037;-48
2023/06/20 09:30:03;;;;;;;8.43;6.72;;;;;;;32.39;36.16;101099.38;5052127;28;20112;-46
2023/06/20 09:32:36;;;;;;;8.35;6.90;;;;;;;32.17;35.55;101098.28;5051961;28;20037;-51
2023/06/20 09:35:06;;;;;;;11.40;7.20;;;;;;;32.22;35.51;101100.63;5051531;28;20120;-50
2023/06/20 09:37:47;;;;;;;7.57;6.07;;;;;;;32.19;35.19;101101.72;5051376;28;20060;-51
2023/06/20 09:40:14;;;;;;;12.88;6.68;;;;;;;32.37;35.57;101104.03;5051693;28;20051;-48
2023/06/20 09:42:42;;;;;;;11.57;8.10;;;;;;;32.51;35.25;101096.63;5052209;28;20029;-46
2023/06/20 09:45:08;;;;;;;10.57;7.28;;;;;;;32.31;35.66;101105.34;5052078;28;20037;-45
2023/06/20 09:47:38;;;;;;;9.85;6.93;;;;;;;32.41;35.96;101108.22;5051173;28;20037;-50
2023/06/20 09:50:08;;;;;;;9.23;7.20;;;;;;;32.68;36.42;101108.03;5050590;28;20039;-51
2023/06/20 09:52:46;;;;;;;11.73;7.00;;;;;;;32.52;34.99;101097.47;5051479;28;20033;-49
2023/06/20 09:55:13;;;;;;;11.10;6.10;;;;;;;32.79;35.09;101100.84;5051501;28;20031;-55
2023/06/20 09:57:43;;;;;;;12.02;8.15;;;;;;;32.17;35.91;101100.97;5051274;28;20569;-49
2023/06/20 10:00:14;;;;;;;9.32;7.43;;;;;;;32.74;35.76;101096.78;5052605;28;20048;-49
2023/06/20 10:02:45;;;;;;;13.23;8.10;;;;;;;32.86;34.47;101091.31;5053299;28;20059;-46
2023/06/20 10:05:18;;;;;;;10.73;7.70;;;;;;;32.40;35.33;101090.31;5052666;28;20055;-53
2023/06/20 10:07:45;;;;;;;11.25;7.68;;;;;;;32.45;36.04;101091.69;5051451;28;20102;-48
2023/06/20 10:10:12;;;;;;;9.63;7.00;;;;;;;32.76;35.08;101094.81;5051722;28;20032;-50
2023/06/20 10:12:43;;;;;;;7.65;6.20;;;;;;;32.61;36.13;101076.06;5050192;28;20033;-47
2023/06/20 10:15:09;;;;;;;8.85;6.00;;;;;;;32.46;35.65;101077.22;5051668;28;20086;-49
2023/06/20 10:17:39;;;;;;;7.32;6.28;;;;;;;32.45;34.70;101074.66;5050340;28;20036;-52
2023/06/20 10:20:24;;;;;;;6.57;5.40;;;;;;;32.89;34.57;101076.69;5051273;28;20415;-48
2023/06/20 10:22:50;;;;;;;8.27;5.60;;;;;;;32.50;35.00;101076.03;5051364;28;20037;-48
2023/06/20 10:25:18;;;;;;;7.30;5.85;;;;;;;32.20;35.96;101070.22;5051012;28;20090;-49
2023/06/20 10:27:54;;;;;;;8.70;5.50;;;;;;;32.42;35.87;101053.28;5051245;28;20025;-51
2023/06/20 10:30:58;;;;;;;7.40;5.65;;;;;;;32.87;34.17;101057.06;5050524;28;20045;-48
2023/06/20 10:33:24;;;;;;;6.80;5.65;;;;;;;33.10;34.06;101061.53;5046457;28;20033;-50
2023/06/20 10:35:53;;;;;;;9.25;6.28;;;;;;;33.18;33.43;101059.13;5050510;28;20035;-50
2023/06/20 10:38:18;;;;;;;8.73;5.70;;;;;;;33.01;34.18;101051.44;5050867;28;20029;-47
2023/06/20 10:40:44;;;;;;;7.95;5.82;;;;;;;32.84;33.85;101044.66;5050803;28;20155;-52
2023/06/20 10:43:17;;;;;;;6.63;5.72;;;;;;;33.06;34.25;101043.00;5051141;28;20428;-48
2023/06/20 10:45:53;;;;;;;7.70;5.47;;;;;;;33.17;33.70;101049.28;5049663;28;20595;-51
2023/06/20 10:48:20;;;;;;;7.75;6.05;;;;;;;33.53;32.93;101044.69;5050255;28;20094;-51
2023/06/20 10:50:46;;;;;;;9.00;5.90;;;;;;;33.02;33.76;101039.66;5050807;28;20559;-48
2023/06/20 10:53:13;;;;;;;8.85;5.50;;;;;;;32.83;33.65;101042.06;5050830;28;20038;-48
2023/06/20 10:55:38;;;;;;;6.90;5.32;;;;;;;32.63;34.07;101032.78;5050014;28;20040;-50
2023/06/20 10:58:04;;;;;;;9.05;5.82;;;;;;;32.99;33.54;101026.41;5050928;28;20047;-48
2023/06/20 11:00:29;;;;;;;7.07;6.10;;;;;;;32.78;34.32;101031.63;5049872;28;20029;-52
2023/06/20 11:02:55;;;;;;;7.22;5.70;;;;;;;32.68;34.92;101019.81;5049591;28;20220;-52
2023/06/20 11:05:26;;;;;;;9.50;5.57;;;;;;;33.28;34.17;101026.84;5049436;28;20103;-46
2023/06/20 11:07:54;;;;;;;8.48;5.43;;;;;;;33.29;34.41;101023.16;5050158;28;20078;-50
2023/06/20 11:10:21;;;;;;;6.38;5.18;;;;;;;33.10;33.68;101014.75;5049811;28;20072;-49
2023/06/20 11:12:47;;;;;;;6.18;4.90;;;;;;;33.30;33.87;101012.22;5050506;28;20058;-52
2023/06/20 11:15:39;;;;;;;7.82;4.78;;;;;;;33.42;33.85;101003.13;5049788;28;20029;-49
2023/06/20 11:18:06;;;;;;;6.38;4.90;;;;;;;33.91;33.46;101001.91;5050392;28;20562;-48
2023/06/20 11:20:35;;;;;;;9.10;4.47;;;;;;;34.01;32.84;100997.44;5049411;28;20121;-53